• Join FlightAware (Why Join?)
  • Login
  • US Flag 
12:20AM EDT


 

Airport Tracker/Info


-or-


 

Live Flight TrackerFlight Track Log ✈ LAN2531 ✈ 19-Aug-2013 ✈ KJFK - SPIM / LIM

Flight Track Log - Related Links

Times and Time Zones

All times are in EDT time to prevent confusion due to time zone crossing. See the LAN2531 flight status page for this flight to view local times or setup timezone preferences in your user account.

Time Position Orientation Groundspeed Altitude Reporting Facility
EDT Latitude Longitude Course Direction KTS MPH feet Rate Location/Type
11:59PM 40.6500 -73.7900 73° East  Level FlightAware
12:13AM 40.6310 -73.7780 308° West 90 104  Level FlightAware
12:14AM 40.6380 -73.7930 302° West 151 174 720 Level FlightAware
12:14AM 40.6460 -73.8110 300° West 177 204 500 2,160 Climbing FlightAware
12:14AM 40.6510 -73.8270 292° West 176 203 1,300 2,520 Climbing FlightAware
12:14AM 40.6510 -73.8320 270° West 181 208 1,400 1,080 Climbing FlightAware
12:15AM 40.6430 -73.8550 245° Southwest 219 252 1,800 1,500 Climbing FlightAware
12:15AM 40.6270 -73.8760 225° Southwest 235 270 2,500 2,100 Climbing FlightAware
12:15AM 40.6210 -73.8830 222° Southwest 243 280 2,800 2,460 Climbing FlightAware
12:15AM 40.6150 -73.8870 207° Southwest 251 289 3,000 2,280 Climbing FlightAware
12:16AM 40.6060 -73.8900 194° South 260 299 3,300 2,760 Climbing FlightAware
12:16AM 40.5760 -73.8820 169° South 272 313 4,500 2,880 Climbing FlightAware
12:16AM 40.5668 -73.8792 167° South 277 319 4,800 3,000 Climbing FlightAware ADS-B
12:16AM 40.5605 -73.8768 164° South 278 320 5,100 3,240 Climbing FlightAware ADS-B
12:16AM 40.5397 -73.8689 164° South 280 322 6,000 3,360 Climbing FlightAware ADS-B
12:17AM 40.5322 -73.8654 160° South 282 325 6,400 3,300 Climbing FlightAware ADS-B
12:17AM 40.5282 -73.8630 155° Southeast 285 328 6,500 3,000 Climbing FlightAware ADS-B
12:17AM 40.5234 -73.8593 150° Southeast 286 329 6,800 3,000 Climbing FlightAware ADS-B
12:17AM 40.5176 -73.8541 146° Southeast 288 331 7,000 3,300 Climbing FlightAware ADS-B
12:17AM 40.5135 -73.8495 140° Southeast 288 331 7,300 3,720 Climbing FlightAware ADS-B
12:17AM 40.5100 -73.8452 137° Southeast 289 333 7,500 3,420 Climbing FlightAware ADS-B
12:17AM 40.5068 -73.8407 133° Southeast 290 334 7,700 3,000 Climbing FlightAware ADS-B
12:17AM 40.4972 -73.8251 129° Southeast 294 338 8,200 3,000 Climbing FlightAware ADS-B
12:17AM 40.4842 -73.8042 129° Southeast 297 342 9,000 2,700 Climbing FlightAware ADS-B
12:18AM 40.4707 -73.7821 129° Southeast 305 351 9,600 2,040 Climbing FlightAware ADS-B
12:18AM 40.4433 -73.7369 129° Southeast 331 381 10,600 1,800 Climbing FlightAware ADS-B
12:19AM 40.4129 -73.6867 128° Southeast 365 420 11,400 1,500 Climbing FlightAware ADS-B
12:19AM 40.3807 -73.6336 129° Southeast 398 458 12,100 1,980 Climbing FlightAware ADS-B
12:20AM 40.3455 -73.5761 129° Southeast 409 471 13,400 2,520 Climbing FlightAware ADS-B
12:20AM 40.3286 -73.5485 129° Southeast 414 476 14,000 2,520 Climbing FlightAware ADS-B
12:20AM 40.3204 -73.5366 132° Southeast 415 478 14,300 2,520 Climbing FlightAware ADS-B
12:20AM 40.3099 -73.5239 137° Southeast 417 480 14,600 2,760 Climbing FlightAware ADS-B
12:20AM 40.2984 -73.5125 143° Southeast 418 481 15,000 3,000 Climbing FlightAware ADS-B
12:20AM 40.2828 -73.5001 149° Southeast 420 483 15,400 2,520 Climbing FlightAware ADS-B
12:20AM 40.2749 -73.4951 154° Southeast 420 483 15,600 2,280 Climbing FlightAware ADS-B
12:21AM 40.2611 -73.4876 157° South 422 486 15,900 2,280 Climbing FlightAware ADS-B
12:21AM 40.2415 -73.4801 164° South 426 490 16,300 2,400 Climbing FlightAware ADS-B
12:21AM 40.2212 -73.4758 171° South 427 491 16,700 2,280 Climbing FlightAware ADS-B
12:21AM 40.2067 -73.4748 177° South 427 491 17,000 2,400 Climbing FlightAware ADS-B
12:21AM 40.1920 -73.4754 182° South 427 491 17,300 2,640 Climbing FlightAware ADS-B
12:21AM 40.1706 -73.4789 187° South 428 493 17,800 2,400 Climbing FlightAware ADS-B
12:21AM 40.1525 -73.4844 193° South 430 495 18,100 1,860 Climbing FlightAware ADS-B
12:22AM 40.1341 -73.4929 199° South 430 495 18,400 2,280 Climbing FlightAware ADS-B
12:22AM 40.1195 -73.5021 206° Southwest 428 493 18,800 2,760 Climbing FlightAware ADS-B
12:22AM 40.0671 -73.5401 209° Southwest 428 493 20,200 2,400 Climbing FlightAware ADS-B
12:23AM 40.0151 -73.5786 210° Southwest 433 498 21,300 2,160 Climbing FlightAware ADS-B
12:23AM 39.9621 -73.6179 210° Southwest 438 504 22,400 1,680 Climbing FlightAware ADS-B
12:24AM 39.9087 -73.6571 209° Southwest 433 498 23,000 600 Climbing FlightAware ADS-B
12:24AM 39.8581 -73.6941 209° Southwest 415 478 23,000 240 Level FlightAware ADS-B
12:25AM 39.8068 -73.7316 209° Southwest 417 480 23,300 660 Climbing FlightAware ADS-B
12:25AM 39.7547 -73.7697 209° Southwest 439 505 23,700 1,080 Climbing FlightAware ADS-B
12:26AM 39.7002 -73.8093 209° Southwest 450 518 24,400 1,620 Climbing FlightAware ADS-B
12:26AM 39.6442 -73.8497 209° Southwest 455 524 25,400 1,920 Climbing FlightAware ADS-B
12:27AM 39.5882 -73.8902 209° Southwest 456 525 26,400 2,100 Climbing FlightAware ADS-B
12:27AM 39.5328 -73.9301 209° Southwest 454 522 27,500 2,760 Climbing FlightAware ADS-B
12:28AM 39.4788 -73.9689 209° Southwest 436 502 29,200 3,000 Climbing FlightAware ADS-B
12:28AM 39.4400 -73.9971 209° Southwest 427 491 30,200 2,640 Climbing FlightAware ADS-B
12:28AM 39.4159 -74.0171 213° Southwest 416 479 30,900 2,220 Climbing FlightAware ADS-B
12:29AM 39.3704 -74.0624 218° Southwest 401 461 31,900 1,080 Climbing FlightAware ADS-B
12:29AM 39.3284 -74.1082 220° Southwest 390 449 32,000 60 Climbing FlightAware ADS-B
12:30AM 39.2806 -74.1608 220° Southwest 385 443 32,000  Level FlightAware ADS-B
12:31AM 39.2391 -74.2063 220° Southwest 390 449 32,000  Level FlightAware ADS-B
12:31AM 39.1961 -74.2532 220° Southwest 395 455 32,000  Level FlightAware ADS-B
12:31AM 39.1765 -74.2742 220° Southwest 398 458 32,000  Level FlightAware ADS-B
12:31AM 39.1655 -74.2844 216° Southwest 404 465 32,000  Level FlightAware ADS-B
12:32AM 39.1156 -74.3199 209° Southwest 410 472 32,000  Level FlightAware ADS-B
12:32AM 39.0657 -74.3558 209° Southwest 407 468 32,000  Level FlightAware ADS-B
12:33AM 39.0043 -74.4024 211° Southwest 403 464 32,000  Level FlightAware ADS-B
12:34AM 38.9523 -74.4433 211° Southwest 400 460 32,000  Level FlightAware ADS-B
12:34AM 38.9053 -74.4804 212° Southwest 398 458 32,000  Level FlightAware ADS-B
12:35AM 38.8540 -74.5187 210° Southwest 398 458 32,000  Level FlightAware ADS-B
12:35AM 38.7918 -74.5636 209° Southwest 398 458 32,000  Level FlightAware ADS-B
12:36AM 38.7422 -74.5996 210° Southwest 398 458 32,000  Level FlightAware ADS-B
12:36AM 38.6940 -74.6346 210° Southwest 400 460 32,000  Level FlightAware ADS-B
12:37AM 38.6451 -74.6702 210° Southwest 401 461 32,000  Level FlightAware ADS-B
12:37AM 38.5952 -74.7065 210° Southwest 402 463 32,000  Level FlightAware ADS-B
12:38AM 38.5460 -74.7422 210° Southwest 403 464 32,000  Level FlightAware ADS-B
12:38AM 38.4958 -74.7786 210° Southwest 405 466 32,000  Level FlightAware ADS-B
12:39AM 38.4467 -74.8140 209° Southwest 407 468 32,000  Level FlightAware ADS-B
12:40AM 38.3820 -74.8610 210° Southwest 408 470 32,000  Level FlightAware
12:40AM 38.3496 -74.8839 209° Southwest 407 468 32,000  Level FlightAware ADS-B
12:40AM 38.2999 -74.9197 209° Southwest 409 471 32,000  Level FlightAware ADS-B
12:41AM 38.2492 -74.9559 209° Southwest 410 472 32,000  Level FlightAware ADS-B
12:41AM 38.1994 -74.9917 209° Southwest 412 474 32,000  Level FlightAware ADS-B
12:42AM 38.1497 -75.0272 209° Southwest 411 473 32,000  Level FlightAware ADS-B
12:42AM 38.0994 -75.0632 209° Southwest 412 474 32,000  Level FlightAware ADS-B
12:43AM 38.0240 -75.1170 209° Southwest 404 465 32,000  Level FlightAware
12:44AM 37.9830 -75.1460 209° Southwest 412 474 32,000  Level FlightAware ADS-B
12:44AM 37.9328 -75.1817 209° Southwest 411 473 32,000  Level FlightAware ADS-B
12:45AM 37.8828 -75.2174 209° Southwest 411 473 32,000  Level FlightAware ADS-B
12:45AM 37.8325 -75.2529 209° Southwest 412 474 32,000  Level FlightAware ADS-B
12:46AM 37.7818 -75.2887 209° Southwest 412 474 32,000  Level FlightAware ADS-B
12:46AM 37.7312 -75.3244 209° Southwest 413 475 32,000  Level FlightAware ADS-B
12:47AM 37.6810 -75.3598 209° Southwest 412 474 32,000  Level FlightAware ADS-B
12:47AM 37.6296 -75.3960 209° Southwest 411 473 32,000  Level FlightAware ADS-B
12:48AM 37.5570 -75.4470 209° Southwest 405 466 32,000  Level FlightAware
12:48AM 37.4990 -75.4880 209° Southwest 406 467 32,000  Level FlightAware
12:49AM 37.4659 -75.5108 209° Southwest 414 476 32,000  Level FlightAware ADS-B
12:49AM 37.4148 -75.5465 209° Southwest 415 478 32,000  Level FlightAware ADS-B
12:50AM 37.3642 -75.5819 209° Southwest 415 478 32,000  Level FlightAware ADS-B
12:50AM 37.3136 -75.6172 209° Southwest 416 479 32,000  Level FlightAware ADS-B
12:51AM 37.2678 -75.6490 209° Southwest 416 479 32,000  Level FlightAware ADS-B
12:51AM 37.2172 -75.6842 209° Southwest 416 479 32,000  Level FlightAware ADS-B
12:52AM 37.1660 -75.7196 209° Southwest 416 479 32,000  Level FlightAware ADS-B
12:52AM 37.1146 -75.7552 209° Southwest 416 479 32,000  Level FlightAware ADS-B
12:53AM 37.0634 -75.7905 209° Southwest 417 480 32,000  Level FlightAware ADS-B
12:53AM 37.0128 -75.8256 209° Southwest 416 479 32,000  Level FlightAware ADS-B
12:54AM 36.9617 -75.8609 209° Southwest 417 480 32,000  Level FlightAware ADS-B
12:54AM 36.9092 -75.8970 209° Southwest 417 480 32,000  Level FlightAware ADS-B
12:55AM 36.8584 -75.9318 209° Southwest 417 480 32,000  Level FlightAware ADS-B
12:56AM 36.7680 -75.9940 209° Southwest 410 472 32,000  Level FlightAware
12:56AM 36.7080 -76.0350 209° Southwest 411 473 32,000  Level FlightAware
12:57AM 36.6480 -76.0760 209° Southwest 418 481 32,000  Level FlightAware
12:57AM 36.6010 -76.1080 209° Southwest 418 481 32,000 360 Level FlightAware
12:58AM 36.5350 -76.1530 209° Southwest 410 472 32,400 1,080 Climbing FlightAware
12:59AM 36.4680 -76.1980 208° Southwest 408 470 33,400 1,260 Climbing FlightAware
12:59AM 36.4130 -76.2360 209° Southwest 409 471 34,000 480 Climbing FlightAware
01:00AM 36.3440 -76.2820 208° Southwest 410 472 34,000  Level FlightAware
01:00AM 36.2830 -76.3230 208° Southwest 409 471 34,000  Level FlightAware
01:01AM 36.2240 -76.3640 209° Southwest 409 471 34,000  Level FlightAware
01:02AM 36.1650 -76.4030 208° Southwest 418 481 34,000  Level FlightAware
01:02AM 36.1060 -76.4430 209° Southwest 418 481 34,000  Level FlightAware
01:03AM 36.0480 -76.4820 209° Southwest 417 480 34,000  Level FlightAware
01:03AM 35.9920 -76.5190 208° Southwest 418 481 34,000  Level FlightAware
01:04AM 35.9270 -76.5630 209° Southwest 419 482 34,000  Level FlightAware
01:05AM 35.8610 -76.6060 208° Southwest 420 483 34,000  Level FlightAware
01:05AM 35.8060 -76.6420 208° Southwest 420 483 34,000  Level FlightAware
01:06AM 35.7560 -76.6750 208° Southwest 420 483 34,000  Level FlightAware
01:07AM 35.6225 -76.7625 208° Southwest 418 481 34,000  Level Washington Center
01:08AM 35.5236 -76.8297 209° Southwest 410 472 34,000  Level Washington Center
01:09AM 35.4208 -76.8994 209° Southwest 416 479 34,000  Level Washington Center
01:10AM 35.3156 -76.9667 208° Southwest 416 479 34,000  Level Washington Center
01:11AM 35.2106 -77.0333 207° Southwest 416 479 34,000  Level Washington Center
01:12AM 35.1075 -77.0978 207° Southwest 416 479 34,000  Level Washington Center
01:13AM 34.9922 -77.1336 194° South 421 484 34,000  Level Washington Center
01:14AM 34.8753 -77.1517 187° South 426 490 34,000  Level Washington Center
01:15AM 34.7414 -77.1794 190° South 431 496 34,000  Level Washington Center
01:16AM 34.6200 -77.2022 189° South 431 496 34,000  Level Washington Center
01:22AM 33.9140 -77.3370 189° South 435 501 34,000  Level FlightAware
01:23AM 33.8370 -77.3520 189° South 435 501 34,000  Level FlightAware
01:23AM 33.7760 -77.3630 189° South 435 501 34,000  Level FlightAware
01:24AM 33.6460 -77.3880 189° South 437 503 34,000  Level FlightAware
01:25AM 33.5800 -77.4010 189° South 437 503 34,000  Level FlightAware
01:25AM 33.5190 -77.4130 189° South 437 503 34,000  Level FlightAware
01:26AM 33.4560 -77.4250 189° South 437 503 34,000  Level FlightAware
01:27AM 33.3950 -77.4360 189° South 437 503 34,000  Level FlightAware
01:27AM 33.3340 -77.4480 189° South 437 503 34,000  Level FlightAware
01:28AM 33.2510 -77.4640 189° South 437 503 34,000  Level FlightAware
01:29AM 33.1900 -77.4750 189° South 437 503 34,000  Level FlightAware
01:29AM 33.1280 -77.4870 189° South 437 503 34,000  Level FlightAware
01:30AM 33.0670 -77.4980 189° South 437 503 34,000  Level FlightAware
01:30AM 33.0060 -77.5100 189° South 437 503 34,000  Level FlightAware
01:31AM 32.9450 -77.5210 189° South 437 503 34,000  Level FlightAware
01:32AM 32.8840 -77.5330 189° South 437 503 34,000  Level FlightAware
01:32AM 32.8230 -77.5440 189° South 437 503 34,000  Level FlightAware
01:33AM 32.7600 -77.5560 189° South 437 503 34,000  Level FlightAware
01:33AM 32.6990 -77.5680 189° South 437 503 34,000  Level FlightAware
01:34AM 32.6380 -77.5790 189° South 437 503 34,000  Level FlightAware
01:35AM 32.2956 -77.6411 189° South 448 516 34,000  Level Jacksonville Center
01:36AM 32.1714 -77.6653 189° South 448 516 34,000  Level Jacksonville Center
01:37AM 32.0492 -77.6869 189° South 448 516 34,000  Level Jacksonville Center
01:38AM 31.9247 -77.7086 188° South 448 516 34,000  Level Jacksonville Center
01:39AM 31.8006 -77.7328 189° South 448 516 34,000  Level Jacksonville Center
01:40AM 31.6806 -77.7564 190° South 448 516 34,000  Level Jacksonville Center
01:41AM 31.5542 -77.7831 190° South 456 525 34,000  Level Jacksonville Center
01:42AM 31.4339 -77.7994 187° South 452 520 34,000  Level Jacksonville Center
01:43AM 31.3117 -77.8231 189° South 444 511 34,000  Level Jacksonville Center
01:44AM 31.1892 -77.8442 188° South 434 499 34,000  Level Jacksonville Center
01:45AM 31.0667 -77.8606 187° South 455 524 34,000  Level Jacksonville Center
01:46AM 30.9444 -77.8817 188° South 449 517 34,000  Level Jacksonville Center
01:48AM 30.7286 -77.9339 192° South 439 505 34,000  Level Miami Center
01:49AM 30.6056 -77.9544 188° South 449 517 34,000  Level Miami Center
01:50AM 30.4761 -77.9772 189° South 460 529 34,000  Level Miami Center
01:51AM 30.3531 -78.0000 189° South 460 529 34,000  Level Miami Center
01:52AM 30.2256 -78.0344 193° South 455 524 34,000  Level Miami Center
01:53AM 30.0942 -78.0500 186° South 449 517 34,000  Level Miami Center
01:54AM 29.9708 -78.0725 189° South 449 517 34,000  Level Miami Center
01:55AM 29.8433 -78.0925 188° South 455 524 34,000  Level Miami Center
01:56AM 29.7286 -78.1200 192° South 449 517 34,000  Level Miami Center
01:57AM 29.5950 -78.1350 186° South 449 517 34,000  Level Miami Center
01:58AM 29.5008 -78.1556 191° South 449 517 34,000  Level Miami Center
01:59AM 29.3506 -78.1800 188° South 451 519 34,000  Level Miami Center
02:00AM 29.2250 -78.1997 188° South 456 525 34,000  Level Miami Center
02:06AM 28.4640 -78.3310 188° South 456 525 34,000  Level FlightAware
02:07AM 28.3950 -78.3420 188° South 456 525 34,000  Level FlightAware
02:07AM 28.3080 -78.3580 189° South 455 524 34,000  Level FlightAware
02:08AM 28.2040 -78.3750 188° South 454 522 34,000  Level FlightAware
02:09AM 28.1320 -78.3880 189° South 454 522 34,000  Level FlightAware
02:09AM 28.0540 -78.4010 188° South 454 522 34,000  Level FlightAware
02:10AM 27.9850 -78.4130 189° South 455 524 34,000  Level FlightAware
02:11AM 27.9110 -78.4250 188° South 455 524 34,000  Level FlightAware
02:11AM 27.8220 -78.4410 189° South 455 524 34,000  Level FlightAware
02:12AM 27.7500 -78.4530 188° South 455 524 34,000  Level FlightAware
02:12AM 27.6810 -78.4650 189° South 455 524 34,000  Level FlightAware
02:13AM 27.6160 -78.4760 189° South 454 522 34,000  Level FlightAware
02:14AM 27.5320 -78.4900 188° South 455 524 34,000  Level FlightAware
02:14AM 27.4640 -78.5010 188° South 456 525 34,000  Level FlightAware
02:15AM 27.3960 -78.5130 189° South 457 526 34,000  Level FlightAware
02:15AM 27.3110 -78.5270 188° South 456 525 34,000  Level FlightAware
02:16AM 27.2480 -78.5380 189° South 458 527 34,000  Level FlightAware
02:16AM 27.1810 -78.5490 188° South 458 527 34,000  Level FlightAware
02:17AM 27.1000 -78.5630 189° South 458 527 34,000  Level FlightAware
02:18AM 27.0350 -78.5740 189° South 457 526 34,000  Level FlightAware
02:18AM 26.9510 -78.5880 188° South 457 526 34,000  Level FlightAware
02:19AM 26.8780 -78.6000 188° South 456 525 34,000  Level FlightAware
02:19AM 26.8050 -78.6120 188° South 457 526 34,000  Level FlightAware
02:20AM 26.7330 -78.6240 188° South 457 526 34,000  Level FlightAware
02:21AM 26.6500 -78.6210 178° South 459 528 34,000  Level FlightAware
02:21AM 26.5730 -78.6140 175° South 460 529 34,000  Level FlightAware
02:22AM 26.5010 -78.6080 176° South 461 531 34,000  Level FlightAware
02:22AM 26.4310 -78.6010 175° South 461 531 34,000  Level FlightAware
02:23AM 26.3520 -78.5930 175° South 453 521 34,000  Level FlightAware
02:23AM 26.2870 -78.5860 174° South 452 520 34,000  Level FlightAware
02:24AM 26.2030 -78.5780 175° South 460 529 34,000  Level FlightAware
02:25AM 26.1310 -78.5720 176° South 459 528 34,000  Level FlightAware
02:26AM 26.0280 -78.5720 180° South 448 516 34,000  Level FlightAware
02:26AM 25.9560 -78.5760 183° South 455 524 34,000  Level FlightAware
02:27AM 25.8830 -78.5880 188° South 453 521 34,000  Level FlightAware
02:27AM 25.8090 -78.5980 187° South 453 521 34,000  Level FlightAware
02:28AM 25.7360 -78.6060 186° South 452 520 34,000 120 Level FlightAware
02:28AM 25.6640 -78.6140 186° South 453 521 34,200 840 Climbing FlightAware
02:29AM 25.5900 -78.6210 185° South 449 517 35,000 660 Climbing FlightAware
02:30AM 25.5180 -78.6290 186° South 440 506 35,000  Level FlightAware
02:30AM 25.4450 -78.6400 188° South 440 506 35,000  Level FlightAware
02:31AM 25.3730 -78.6450 184° South 450 518 35,000  Level FlightAware
02:31AM 25.3000 -78.6510 184° South 453 521 35,000  Level FlightAware
02:32AM 25.2250 -78.6570 184° South 451 519 35,000  Level FlightAware
02:32AM 25.1630 -78.6640 186° South 449 517 35,000  Level FlightAware
02:33AM 25.0790 -78.6720 185° South 440 506 35,000  Level FlightAware
02:34AM 25.0040 -78.6800 186° South 439 505 35,000  Level FlightAware
02:34AM 24.9230 -78.6880 185° South 439 505 35,000  Level FlightAware
02:35AM 24.8600 -78.6940 185° South 438 504 35,000  Level FlightAware
02:36AM 24.7820 -78.7020 185° South 437 503 35,000  Level FlightAware
02:36AM 24.7060 -78.7100 185° South 435 501 35,000  Level FlightAware
02:37AM 24.6410 -78.7160 185° South 435 501 35,000  Level FlightAware
02:37AM 24.5620 -78.7240 185° South 435 501 35,000  Level FlightAware
02:38AM 24.4920 -78.7310 185° South 436 502 35,000  Level FlightAware
02:38AM 24.4200 -78.7380 185° South 436 502 35,000  Level FlightAware
02:39AM 24.3560 -78.7450 186° South 437 503 35,000  Level FlightAware
02:40AM 24.2610 -78.7540 185° South 438 504 35,000  Level FlightAware
02:40AM 24.1840 -78.7610 185° South 438 504 35,000  Level FlightAware
02:41AM 24.1200 -78.7680 186° South 438 504 35,000  Level FlightAware
02:42AM 24.0590 -78.7730 184° South 438 504 35,000  Level FlightAware
02:42AM 23.9950 -78.7800 186° South 438 504 35,000  Level FlightAware
02:43AM 23.9320 -78.7860 185° South 438 504 35,000  Level FlightAware
02:43AM 23.8320 -78.8030 189° South 435 501 35,000  Level FlightAware
02:44AM 23.7700 -78.8240 197° South 435 501 35,000  Level FlightAware
02:44AM 23.7090 -78.8440 197° South 435 501 35,000  Level FlightAware
02:45AM 23.6500 -78.8640 197° South 435 501 35,000  Level FlightAware
02:46AM 23.5910 -78.8840 197° South 435 501 35,000  Level FlightAware
02:46AM 23.5320 -78.9030 196° South 435 501 35,000  Level FlightAware
02:47AM 23.4720 -78.9230 197° South 435 501 35,000  Level FlightAware
02:47AM 23.4130 -78.9430 197° South 435 501 35,000  Level FlightAware
02:48AM 23.3540 -78.9630 197° South 435 501 35,000  Level FlightAware
02:49AM 23.2940 -78.9830 197° South 435 501 35,000  Level FlightAware
02:49AM 23.2350 -79.0020 196° South 435 501 35,000  Level FlightAware
02:50AM 23.1760 -79.0220 197° South 435 501 35,000  Level FlightAware
02:50AM 23.1170 -79.0420 197° South 435 501 35,000  Level FlightAware
02:51AM 23.0580 -79.0610 197° South 435 501 35,000  Level FlightAware
02:52AM 22.9990 -79.0810 197° South 435 501 35,000  Level FlightAware
02:52AM 22.9390 -79.1010 197° South 435 501 35,000  Level FlightAware
02:53AM 22.8800 -79.1200 197° South 435 501 35,000  Level FlightAware
02:56AM 22.5589 -79.1291 181° South  Level FlightAware Approximate
02:57AM 22.4354 -79.1326 181° South  Level FlightAware Approximate
02:58AM 22.3119 -79.1360 181° South  Level FlightAware Approximate
02:59AM 22.1884 -79.1395 181° South  Level FlightAware Approximate
03:00AM 22.0649 -79.1430 181° South  Level FlightAware Approximate
03:01AM 21.9414 -79.1464 181° South  Level FlightAware Approximate
03:02AM 21.8179 -79.1499 181° South  Level FlightAware Approximate
03:03AM 21.6944 -79.1533 181° South  Level FlightAware Approximate
03:04AM 21.5709 -79.1568 181° South  Level FlightAware Approximate
03:05AM 21.4474 -79.1602 181° South  Level FlightAware Approximate
03:06AM 21.3239 -79.1636 181° South  Level FlightAware Approximate
03:07AM 21.2004 -79.1670 181° South  Level FlightAware Approximate
03:08AM 21.0769 -79.1704 181° South  Level FlightAware Approximate
03:09AM 20.9534 -79.1739 181° South  Level FlightAware Approximate
03:10AM 20.8299 -79.1773 181° South  Level FlightAware Approximate
03:11AM 20.7064 -79.1807 181° South  Level FlightAware Approximate
03:12AM 20.5829 -79.1841 181° South  Level FlightAware Approximate
03:13AM 20.4594 -79.1874 181° South  Level FlightAware Approximate
03:14AM 20.3359 -79.1908 181° South  Level FlightAware Approximate
03:15AM 20.2124 -79.1942 181° South  Level FlightAware Approximate
03:16AM 20.0889 -79.1976 181° South  Level FlightAware Approximate
03:17AM 19.9655 -79.2012 182° South  Level FlightAware Approximate
03:18AM 19.8420 -79.2054 182° South  Level FlightAware Approximate
03:19AM 19.7185 -79.2096 182° South  Level FlightAware Approximate
03:20AM 19.5951 -79.2139 182° South  Level FlightAware Approximate
03:21AM 19.4716 -79.2181 182° South  Level FlightAware Approximate
03:22AM 19.3481 -79.2223 182° South  Level FlightAware Approximate
03:23AM 19.2247 -79.2265 182° South  Level FlightAware Approximate
03:24AM 19.1012 -79.2307 182° South  Level FlightAware Approximate
03:25AM 18.9777 -79.2348 182° South  Level FlightAware Approximate
03:26AM 18.8543 -79.2390 182° South  Level FlightAware Approximate
03:27AM 18.7308 -79.2432 182° South  Level FlightAware Approximate
03:28AM 18.6073 -79.2474 182° South  Level FlightAware Approximate
03:29AM 18.4839 -79.2515 182° South  Level FlightAware Approximate
03:30AM 18.3604 -79.2557 182° South  Level FlightAware Approximate
03:31AM 18.2369 -79.2598 182° South  Level FlightAware Approximate
03:32AM 18.1134 -79.2640 182° South  Level FlightAware Approximate
03:33AM 17.9900 -79.2681 182° South  Level FlightAware Approximate
03:34AM 17.8665 -79.2722 182° South  Level FlightAware Approximate
03:35AM 17.7430 -79.2764 182° South  Level FlightAware Approximate
03:36AM 17.6196 -79.2805 182° South  Level FlightAware Approximate
03:37AM 17.4961 -79.2846 182° South  Level FlightAware Approximate
03:38AM 17.3726 -79.2887 182° South  Level FlightAware Approximate
03:39AM 17.2491 -79.2928 182° South  Level FlightAware Approximate
03:40AM 17.1257 -79.2969 182° South  Level FlightAware Approximate
03:41AM 17.0022 -79.3010 182° South  Level FlightAware Approximate
03:42AM 16.8787 -79.3051 182° South  Level FlightAware Approximate
03:43AM 16.7553 -79.3092 182° South  Level FlightAware Approximate
03:44AM 16.6318 -79.3133 182° South  Level FlightAware Approximate
03:45AM 16.5083 -79.3173 182° South  Level FlightAware Approximate
03:46AM 16.3848 -79.3214 182° South  Level FlightAware Approximate
03:47AM 16.2613 -79.3255 182° South  Level FlightAware Approximate
03:48AM 16.1378 -79.3295 182° South  Level FlightAware Approximate
03:49AM 16.0144 -79.3336 182° South  Level FlightAware Approximate
03:50AM 15.8909 -79.3376 182° South  Level FlightAware Approximate
03:51AM 15.7674 -79.3417 182° South  Level FlightAware Approximate
03:52AM 15.6439 -79.3457 182° South  Level FlightAware Approximate
03:53AM 15.5204 -79.3497 182° South  Level FlightAware Approximate
03:54AM 15.3970 -79.3538 182° South  Level FlightAware Approximate
03:55AM 15.2735 -79.3578 182° South  Level FlightAware Approximate
03:56AM 15.1500 -79.3618 182° South  Level FlightAware Approximate
03:57AM 15.0265 -79.3658 182° South  Level FlightAware Approximate
03:58AM 14.9030 -79.3697 182° South  Level FlightAware Approximate
03:59AM 14.7795 -79.3736 182° South  Level FlightAware Approximate
04:00AM 14.6561 -79.3775 182° South  Level FlightAware Approximate
04:01AM 14.5326 -79.3814 182° South  Level FlightAware Approximate
04:02AM 14.4091 -79.3853 182° South  Level FlightAware Approximate
04:03AM 14.2856 -79.3892 182° South  Level FlightAware Approximate
04:04AM 14.1621 -79.3931 182° South  Level FlightAware Approximate
04:05AM 14.0387 -79.3969 182° South  Level FlightAware Approximate
04:06AM 13.9152 -79.4008 182° South  Level FlightAware Approximate
04:07AM 13.7917 -79.4046 182° South  Level FlightAware Approximate
04:08AM 13.6682 -79.4085 182° South  Level FlightAware Approximate
04:09AM 13.5447 -79.4124 182° South  Level FlightAware Approximate
04:10AM 13.4213 -79.4162 182° South  Level FlightAware Approximate
04:11AM 13.2978 -79.4201 182° South  Level FlightAware Approximate
04:12AM 13.1743 -79.4239 182° South  Level FlightAware Approximate
04:13AM 13.0508 -79.4277 182° South  Level FlightAware Approximate
04:14AM 12.9273 -79.4316 182° South  Level FlightAware Approximate
04:15AM 12.8039 -79.4354 182° South  Level FlightAware Approximate
04:15AM 12.3510 -79.4210 182° South 451 519 35,000  Level FlightAware
04:15AM 12.2870 -79.4240 183° South 450 518 35,000  Level FlightAware
04:16AM 12.2120 -79.4260 181° South 450 518 35,000  Level FlightAware
04:16AM 12.1430 -79.4290 182° South 450 518 35,000  Level FlightAware
04:17AM 12.0540 -79.4320 182° South 450 518 35,000  Level FlightAware
04:18AM 11.9680 -79.4350 182° South 451 519 35,000  Level FlightAware
04:18AM 11.8940 -79.4370 182° South 452 520 35,000  Level FlightAware
04:19AM 11.8290 -79.4400 183° South 451 519 35,000  Level FlightAware
04:19AM 11.7440 -79.4430 182° South 451 519 35,000  Level FlightAware
04:20AM 11.6710 -79.4410 178° South 450 518 35,000  Level FlightAware
04:20AM 11.6040 -79.4370 177° South 451 519 35,000  Level FlightAware
04:21AM 11.5290 -79.4340 178° South 453 521 35,000  Level FlightAware
04:22AM 11.4520 -79.4350 181° South 453 521 35,000  Level FlightAware
04:22AM 11.3680 -79.4400 183° South 453 521 35,000  Level FlightAware
04:23AM 11.3030 -79.4440 183° South 455 524 35,000  Level FlightAware
04:23AM 11.2270 -79.4560 189° South 456 525 35,000  Level FlightAware
04:24AM 11.1510 -79.4620 184° South 464 534 35,000  Level FlightAware
04:25AM 11.0740 -79.4660 183° South 465 535 35,000  Level FlightAware
04:25AM 10.9980 -79.4690 182° South 466 536 35,000  Level FlightAware
04:26AM 10.9240 -79.4710 182° South 467 537 35,000  Level FlightAware
04:26AM 10.8450 -79.4740 182° South 468 539 35,000  Level FlightAware
04:27AM 10.7680 -79.4760 181° South 469 540 35,000  Level FlightAware
04:27AM 10.6910 -79.4790 182° South 469 540 35,000  Level FlightAware
04:28AM 10.6160 -79.4820 182° South 469 540 35,000  Level FlightAware
04:29AM 10.5390 -79.4840 181° South 468 539 35,000  Level FlightAware
04:29AM 10.4650 -79.4870 182° South 468 539 35,000  Level FlightAware
04:30AM 10.3880 -79.4890 181° South 466 536 35,000  Level FlightAware
04:30AM 10.3140 -79.4920 182° South 465 535 35,000  Level FlightAware
04:31AM 10.2370 -79.4950 182° South 464 534 35,000  Level FlightAware
04:32AM 10.1630 -79.4970 182° South 463 533 35,000  Level FlightAware
04:32AM 10.0850 -79.5000 182° South 454 522 35,000  Level FlightAware
04:33AM 10.0130 -79.5020 182° South 453 521 35,000  Level FlightAware
04:33AM 9.9360 -79.5050 182° South 452 520 35,000  Level FlightAware
04:34AM 9.8600 -79.5080 182° South 452 520 35,000 420 Level FlightAware
04:34AM 9.7840 -79.5100 181° South 453 521 35,500 1,080 Climbing FlightAware
04:35AM 9.7080 -79.5130 182° South 450 518 36,300 1,320 Climbing FlightAware
04:36AM 9.6440 -79.5150 182° South 450 518 37,000 600 Climbing FlightAware
04:36AM 9.5690 -79.5170 182° South 450 518 37,000  Level FlightAware
04:37AM 9.4860 -79.5200 182° South 448 516 37,000  Level FlightAware
04:37AM 9.4210 -79.5230 183° South 452 520 37,000  Level FlightAware
04:38AM 9.3480 -79.5250 182° South 451 519 37,000  Level FlightAware
04:39AM 9.2640 -79.5280 182° South 450 518 37,000  Level FlightAware
04:39AM 9.2020 -79.5300 182° South 451 519 37,000  Level FlightAware
04:40AM 9.1290 -79.5330 182° South 451 519 37,000  Level FlightAware
04:40AM 9.0520 -79.5350 181° South 451 519 37,000  Level FlightAware
04:41AM 8.9730 -79.5370 181° South 451 519 37,000  Level FlightAware
04:42AM 8.9090 -79.5380 181° South 451 519 37,000  Level FlightAware
04:42AM 8.7990 -79.5440 183° South 454 522 37,000  Level FlightAware
04:43AM 8.7330 -79.5460 182° South 454 522 37,000  Level FlightAware
04:44AM 8.6670 -79.5490 183° South 454 522 37,000  Level FlightAware
04:44AM 8.6030 -79.5510 182° South 454 522 37,000  Level FlightAware
04:45AM 8.5390 -79.5530 182° South 454 522 37,000  Level FlightAware
04:45AM 8.4750 -79.5550 182° South 454 522 37,000  Level FlightAware
04:46AM 8.4110 -79.5580 183° South 454 522 37,000  Level FlightAware
04:47AM 8.3440 -79.5600 182° South 454 522 37,000  Level FlightAware
04:47AM 8.2800 -79.5620 182° South 454 522 37,000  Level FlightAware
04:48AM 8.2160 -79.5640 182° South 454 522 37,000  Level FlightAware
04:48AM 8.1520 -79.5670 183° South 454 522 37,000  Level FlightAware
04:49AM 8.0860 -79.5690 182° South 454 522 37,000  Level FlightAware
04:50AM 8.0220 -79.5710 182° South 454 522 37,000  Level FlightAware
04:50AM 7.9570 -79.5740 183° South 454 522 37,000  Level FlightAware
04:51AM 7.8930 -79.5760 182° South 454 522 37,000  Level FlightAware
04:51AM 7.8290 -79.5780 182° South 454 522 37,000  Level FlightAware
04:54AM 7.5780 -79.5864 182° South  Level FlightAware Approximate
04:55AM 7.4545 -79.5905 182° South  Level FlightAware Approximate
04:56AM 7.3310 -79.5947 182° South  Level FlightAware Approximate
04:57AM 7.2075 -79.5988 182° South  Level FlightAware Approximate
04:58AM 7.0841 -79.6029 182° South  Level FlightAware Approximate
04:59AM 6.9606 -79.6070 182° South  Level FlightAware Approximate
05:00AM 6.8371 -79.6111 182° South  Level FlightAware Approximate
05:01AM 6.7137 -79.6153 182° South  Level FlightAware Approximate
05:02AM 6.5902 -79.6194 182° South  Level FlightAware Approximate
05:03AM 6.4667 -79.6235 182° South  Level FlightAware Approximate
05:04AM 6.3432 -79.6276 182° South  Level FlightAware Approximate
05:05AM 6.2198 -79.6317 182° South  Level FlightAware Approximate
05:06AM 6.0963 -79.6358 182° South  Level FlightAware Approximate
05:07AM 5.9728 -79.6399 182° South  Level FlightAware Approximate
05:08AM 5.8494 -79.6440 182° South  Level FlightAware Approximate
05:09AM 5.7259 -79.6481 182° South  Level FlightAware Approximate
05:10AM 5.6024 -79.6522 182° South  Level FlightAware Approximate
05:11AM 5.4790 -79.6563 182° South  Level FlightAware Approximate
05:12AM 5.3555 -79.6604 182° South  Level FlightAware Approximate
05:13AM 5.2320 -79.6645 182° South  Level FlightAware Approximate
05:14AM 5.1090 -79.6590 172° South  Level FlightAware Approximate
05:15AM 4.9865 -79.6426 172° South  Level FlightAware Approximate
05:16AM 4.8641 -79.6263 172° South  Level FlightAware Approximate
05:17AM 4.7416 -79.6100 172° South  Level FlightAware Approximate
05:18AM 4.6192 -79.5937 172° South  Level FlightAware Approximate
05:19AM 4.4967 -79.5773 172° South  Level FlightAware Approximate
05:20AM 4.3742 -79.5612 173° South  Level FlightAware Approximate
05:21AM 4.2517 -79.5455 173° South  Level FlightAware Approximate
05:22AM 4.1291 -79.5298 173° South  Level FlightAware Approximate
05:23AM 4.0066 -79.5142 173° South  Level FlightAware Approximate
05:24AM 3.8841 -79.4985 173° South  Level FlightAware Approximate
05:25AM 3.7615 -79.4828 173° South  Level FlightAware Approximate
05:26AM 3.6390 -79.4671 173° South  Level FlightAware Approximate
05:27AM 3.5164 -79.4514 173° South  Level FlightAware Approximate
05:28AM 3.3939 -79.4358 173° South  Level FlightAware Approximate
05:29AM 3.2714 -79.4201 173° South  Level FlightAware Approximate
05:30AM 3.1488 -79.4045 173° South  Level FlightAware Approximate
05:31AM 3.0263 -79.3888 173° South  Level FlightAware Approximate
05:32AM 2.9037 -79.3732 173° South  Level FlightAware Approximate
05:33AM 2.7812 -79.3575 173° South  Level FlightAware Approximate
05:34AM 2.6587 -79.3419 173° South  Level FlightAware Approximate
05:35AM 2.5361 -79.3262 173° South  Level FlightAware Approximate
05:36AM 2.4136 -79.3106 173° South  Level FlightAware Approximate
05:37AM 2.2910 -79.2950 173° South  Level FlightAware Approximate
05:38AM 2.1684 -79.2794 173° South  Level FlightAware Approximate
05:39AM 2.0459 -79.2639 173° South  Level FlightAware Approximate
05:40AM 1.9233 -79.2485 173° South  Level FlightAware Approximate
05:41AM 1.8007 -79.2330 173° South  Level FlightAware Approximate
05:42AM 1.6782 -79.2176 173° South  Level FlightAware Approximate
05:43AM 1.5556 -79.2021 173° South  Level FlightAware Approximate
05:44AM 1.4330 -79.1867 173° South  Level FlightAware Approximate
05:45AM 1.3104 -79.1713 173° South  Level FlightAware Approximate
05:46AM 1.1879 -79.1558 173° South  Level FlightAware Approximate
05:47AM 1.0653 -79.1404 173° South  Level FlightAware Approximate
05:48AM 0.9427 -79.1250 173° South  Level FlightAware Approximate
05:48AM 0.2320 -79.8440 173° South 464 534 37,000  Level FlightAware
05:49AM 0.8202 -79.1096 173° South  Level FlightAware Approximate
05:49AM 0.1590 -79.8450 181° South 465 535 37,000  Level FlightAware
05:49AM 0.0870 -79.8460 181° South 467 537 37,000  Level FlightAware
05:50AM 0.0070 -79.8460 180° South 467 537 37,000  Level FlightAware
05:51AM -0.0580 -79.8470 181° South 468 539 37,000  Level FlightAware
05:51AM -0.1450 -79.8480 181° South 469 540 37,000  Level FlightAware
05:52AM -0.2140 -79.8490 181° South 471 542 37,000  Level FlightAware
05:52AM -0.3090 -79.8500 181° South 472 543 37,000  Level FlightAware
05:53AM -0.3710 -79.8500 180° South 473 544 37,000  Level FlightAware
05:54AM -0.4680 -79.8510 181° South 474 545 37,000  Level FlightAware
05:54AM -0.5420 -79.8520 181° South 475 547 37,000  Level FlightAware
05:55AM -0.6210 -79.8520 180° South 476 548 37,000  Level FlightAware
05:55AM -0.6870 -79.8530 181° South 476 548 37,000  Level FlightAware
05:56AM -0.7640 -79.8540 181° South 476 548 37,000  Level FlightAware
05:57AM -0.8520 -79.8550 181° South 476 548 37,000  Level FlightAware
05:57AM -0.9170 -79.8550 180° South 476 548 37,000  Level FlightAware
05:58AM -1.0060 -79.8560 181° South 473 544 37,000  Level FlightAware
05:58AM -1.0720 -79.8570 181° South 467 537 37,000  Level FlightAware
05:59AM -1.1470 -79.8570 180° South 467 537 37,000  Level FlightAware
05:59AM -1.2220 -79.8580 181° South 469 540 37,000  Level FlightAware
06:00AM -1.3000 -79.8590 181° South 470 541 37,000  Level FlightAware
06:01AM -1.3730 -79.8600 181° South 471 542 37,000  Level FlightAware
06:01AM -1.4510 -79.8600 180° South 471 542 37,000  Level FlightAware
06:02AM -1.5390 -79.8610 181° South 471 542 37,000  Level FlightAware
06:02AM -1.6060 -79.8620 181° South 471 542 37,000  Level FlightAware
06:03AM -1.6750 -79.8620 180° South 471 542 37,000  Level FlightAware
06:03AM -1.7550 -79.8630 181° South 471 542 37,000  Level FlightAware
06:04AM -1.8410 -79.8640 181° South 470 541 37,000  Level FlightAware
06:05AM -1.9330 -79.8650 181° South 470 541 37,000  Level FlightAware
06:05AM -2.0060 -79.8660 181° South 469 540 37,000  Level FlightAware
06:06AM -2.0940 -79.8660 180° South 468 539 37,000  Level FlightAware
06:07AM -2.1640 -79.8620 177° South 465 535 37,000  Level FlightAware
06:07AM -2.2430 -79.8530 174° South 464 534 37,000  Level FlightAware
06:08AM -2.3080 -79.8440 172° South 463 533 37,000  Level FlightAware
06:08AM -2.3980 -79.8330 173° South 461 531 37,000  Level FlightAware
06:09AM -2.4690 -79.8240 173° South 461 531 37,000  Level FlightAware
06:10AM -2.5380 -79.8150 173° South 459 528 37,000  Level FlightAware
06:10AM -2.6170 -79.8050 173° South 457 526 37,000  Level FlightAware
06:11AM -2.6910 -79.7960 173° South 456 525 37,000  Level FlightAware
06:11AM -2.7570 -79.7870 172° South 456 525 37,000  Level FlightAware
06:12AM -2.8420 -79.7760 173° South 459 528 37,000  Level FlightAware
06:12AM -2.9160 -79.7670 173° South 460 529 37,000  Level FlightAware
06:13AM -2.9910 -79.7580 173° South 457 526 37,000  Level FlightAware
06:14AM -3.0620 -79.7490 173° South 455 524 37,000  Level FlightAware
06:14AM -3.1350 -79.7400 173° South 453 521 37,000  Level FlightAware
06:15AM -3.2080 -79.7300 172° South 451 519 37,000  Level FlightAware
06:15AM -3.2790 -79.7210 173° South 450 518 37,000  Level FlightAware
06:16AM -3.3530 -79.7120 173° South 457 526 37,000  Level FlightAware
06:17AM -3.4260 -79.7030 173° South 463 533 37,000  Level FlightAware
06:17AM -3.5030 -79.6930 173° South 464 534 37,000  Level FlightAware
06:18AM -3.5780 -79.6840 173° South 461 531 37,000  Level FlightAware
06:18AM -3.6510 -79.6740 172° South 458 527 37,000  Level FlightAware
06:19AM -3.7230 -79.6650 173° South 456 525 37,000  Level FlightAware
06:19AM -3.7960 -79.6560 173° South 455 524 37,000  Level FlightAware
06:20AM -3.8640 -79.6480 173° South 455 524 37,000  Level FlightAware
06:21AM -3.9380 -79.6380 172° South 452 520 37,000  Level FlightAware
06:21AM -4.0310 -79.6260 173° South 453 521 37,000  Level FlightAware
06:22AM -4.0880 -79.6190 173° South 453 521 37,000  Level FlightAware
06:23AM -4.1790 -79.6080 173° South 453 521 37,000  Level FlightAware
06:23AM -4.2840 -79.5940 172° South 456 525 37,000  Level FlightAware
06:24AM -4.3500 -79.5860 173° South 456 525 37,000  Level FlightAware
06:25AM -4.4140 -79.5780 173° South 456 525 37,000  Level FlightAware
06:25AM -4.5140 -79.5650 173° South 398 458 37,000 -480 Level FlightAware
06:26AM -4.6780 -79.5450 173° South 37,000 -480 Level FlightAware
06:29AM -4.9208 -79.4659 162° South  Level Estimated
06:30AM -5.0384 -79.4277 162° South  Level Estimated
06:31AM -5.1559 -79.3894 162° South  Level Estimated
06:32AM -5.2734 -79.3511 162° South  Level Estimated
06:33AM -5.3909 -79.3128 162° South  Level Estimated
06:34AM -5.5084 -79.2744 162° South  Level Estimated
06:35AM -5.6259 -79.2361 162° South  Level Estimated
06:36AM -5.7433 -79.1977 162° South  Level Estimated
06:37AM -5.8608 -79.1593 162° South  Level Estimated
06:38AM -5.9783 -79.1209 162° South  Level Estimated
06:39AM -6.0958 -79.0825 162° South  Level Estimated
06:40AM -6.2133 -79.0441 162° South  Level Estimated
06:41AM -6.3308 -79.0057 162° South  Level Estimated
06:42AM -6.4482 -78.9672 162° South  Level Estimated
06:43AM -6.5657 -78.9287 162° South  Level Estimated
06:44AM -6.6832 -78.8902 162° South  Level Estimated
06:45AM -6.8007 -78.8517 162° South  Level Estimated
06:46AM -6.9181 -78.8132 162° South  Level Estimated
06:47AM -7.0356 -78.7746 162° South  Level Estimated
06:48AM -7.1530 -78.7361 162° South  Level Estimated
06:49AM -7.2705 -78.6975 162° South  Level Estimated
06:50AM -7.3879 -78.6589 162° South  Level Estimated
06:51AM -7.5054 -78.6202 162° South  Level Estimated
06:52AM -7.6228 -78.5816 162° South  Level Estimated
06:53AM -7.7403 -78.5429 162° South  Level Estimated
06:54AM -7.8577 -78.5042 162° South  Level Estimated
06:55AM -7.9751 -78.4655 162° South  Level Estimated
06:56AM -8.0926 -78.4267 162° South  Level Estimated
06:57AM -8.2100 -78.3880 162° South  Level Estimated
06:58AM -8.3274 -78.3492 162° South  Level Estimated
06:59AM -8.4448 -78.3104 162° South  Level Estimated
07:00AM -8.5622 -78.2715 162° South  Level Estimated
07:01AM -8.6797 -78.2327 162° South  Level Estimated
07:02AM -8.7971 -78.1938 162° South  Level Estimated
07:03AM -8.9145 -78.1549 162° South  Level Estimated
07:04AM -9.0319 -78.1160 162° South  Level Estimated
07:05AM -9.1493 -78.0770 162° South  Level Estimated
07:06AM -9.2666 -78.0380 162° South  Level Estimated
07:07AM -9.3840 -77.9990 162° South  Level Estimated
07:08AM -9.5014 -77.9600 162° South  Level Estimated
07:09AM -9.6188 -77.9209 162° South  Level Estimated
07:10AM -9.7362 -77.8818 162° South  Level Estimated
07:11AM -9.8535 -77.8427 162° South  Level Estimated
07:12AM -9.9709 -77.8036 162° South  Level Estimated
07:13AM -10.0883 -77.7644 162° South  Level Estimated
07:14AM -10.2056 -77.7252 162° South  Level Estimated
07:15AM -10.3230 -77.6860 162° South  Level Estimated
07:16AM -10.4403 -77.6467 162° South  Level Estimated
07:17AM -10.5576 -77.6074 162° South  Level Estimated
07:18AM -10.6750 -77.5681 162° South  Level Estimated
07:19AM -10.7923 -77.5287 162° South  Level Estimated
07:20AM -10.9096 -77.4893 162° South  Level Estimated
07:21AM -11.0270 -77.4499 162° South  Level Estimated
07:22AM -11.1443 -77.4105 162° South  Level Estimated
07:23AM -11.2616 -77.3710 162° South  Level Estimated
07:23AM -11.4310 -77.4050 162° South 307 353 9,700  Level FlightAware
07:23AM -11.4590 -77.3910 154° Southeast 322 371 8,700 -2,400 Descending FlightAware
07:24AM -11.3789 -77.3315 162° South  Level Estimated
07:24AM -11.4850 -77.3780 154° Southeast 327 376 8,100  Level FlightAware
07:24AM -11.5090 -77.3670 156° South 324 373 7,700 -1,440 Descending FlightAware
07:24AM -11.5410 -77.3510 154° Southeast 317 365 7,100 -720 Descending FlightAware
07:25AM -11.5710 -77.3360 154° Southeast 317 365 7,100  Level FlightAware
07:28AM -11.8615 -77.2017 162° South  Level FlightAware Approximate
07:29AM -11.9663 -77.1368 159° South  Level FlightAware Approximate
07:30AM -12.0167 -77.1167 159° South  Level FlightAware Approximate
07:31AM -12.0219 -77.1143 159° South  Level Estimated
07:32AM -12.0167 -77.1167 159° South  Level FlightAware Approximate
07:33AM -12.0219 -77.1143 159° South  Level Estimated
07:34AM -12.0167 -77.1167 159° South  Level FlightAware Approximate
07:35AM -12.0219 -77.1143 159° South  Level Estimated
07:36AM -12.0167 -77.1167 159° South  Level FlightAware Approximate
07:37AM -12.0219 -77.1143 159° South  Level Estimated
07:38AM -12.0167 -77.1167 159° South  Level FlightAware Approximate
07:39AM -12.0219 -77.1143 159° South  Level Estimated
07:40AM -12.0167 -77.1167 159° South  Level FlightAware Approximate
07:41AM -12.0219 -77.1143 159° South  Level Estimated
07:42AM -12.0167 -77.1167 159° South  Level FlightAware Approximate
07:43AM -12.0219 -77.1143 159° South  Level Estimated
07:44AM -12.0167 -77.1167 159° South  Level FlightAware Approximate
07:45AM -12.0219 -77.1143 159° South  Level Estimated
07:46AM -12.0167 -77.1167 159° South  Level FlightAware Approximate
07:47AM -12.0219 -77.1143 159° South  Level Estimated
07:48AM -12.0167 -77.1167 159° South  Level FlightAware Approximate
07:49AM -12.0219 -77.1143 159° South  Level Estimated